Time;durP1;ratioP1;P1;durP2;ratioP2;P2;SDS_P1;SDS_P2;PMS_P1;PMS_P2;Temp;Humidity;BMP_temperature;BMP_pressure;BME280_temperature;BME280_humidity;BME280_pressure;Samples;Min_cycle;Max_cycle;Signal;HPM_P1;HPM_P2
2024/01/25 00:00:12;;;;;;;;;;;;;;;5.91;100.00;102220.81;4896020;29;19959;-73
2024/01/25 00:02:37;;;;;;;;;;;;;;;5.90;100.00;102226.28;4895767;29;20451;-73
2024/01/25 00:05:03;;;;;;;;;;;;;;;5.92;100.00;102224.31;4895091;29;19982;-73
2024/01/25 00:07:30;;;;;;;;;;;;;;;5.90;100.00;102220.94;4895820;29;19923;-73
2024/01/25 00:09:57;;;;;;;;;;;;;;;5.86;100.00;102225.69;4895987;29;19931;-73
2024/01/25 00:12:22;;;;;;;;;;;;;;;5.87;100.00;102230.06;4894886;29;20325;-73
2024/01/25 00:14:48;;;;;;;;;;;;;;;5.87;100.00;102235.41;4896749;29;19934;-73
2024/01/25 00:17:13;;;;;;;;;;;;;;;5.83;100.00;102231.28;4896094;29;19923;-74
2024/01/25 00:19:38;;;;;;;;;;;;;;;5.78;100.00;102230.84;4895192;29;19930;-73
2024/01/25 00:22:03;;;;;;;;;;;;;;;5.74;100.00;102226.75;4895928;29;19923;-73
2024/01/25 00:24:28;;;;;;;;;;;;;;;5.67;100.00;102231.78;4896506;29;20026;-74
2024/01/25 00:26:56;;;;;;;;;;;;;;;5.62;100.00;102236.66;4895223;29;20006;-73
2024/01/25 00:29:22;;;;;;;;;;;;;;;5.57;100.00;102245.06;4896552;29;19927;-72
2024/01/25 00:31:47;;;;;;;;;;;;;;;5.50;100.00;102237.69;4895707;29;19924;-72
2024/01/25 00:34:12;;;;;;;;;;;;;;;5.42;100.00;102241.00;4894620;29;20010;-73
2024/01/25 00:36:38;;;;;;;;;;;;;;;5.37;100.00;102248.53;4895282;29;20395;-73
2024/01/25 00:39:04;;;;;;;;;;;;;;;5.28;100.00;102237.66;4895505;29;19931;-72
2024/01/25 00:41:29;;;;;;;;;;;;;;;5.21;100.00;102238.28;4895216;29;19935;-72
2024/01/25 00:43:54;;;;;;;;;;;;;;;5.11;100.00;102241.72;4895660;29;20018;-71
2024/01/25 00:46:20;;;;;;;;;;;;;;;5.06;100.00;102237.75;4895585;29;19983;-72
2024/01/25 00:48:45;;;;;;;;;;;;;;;4.98;100.00;102252.56;4895939;29;19963;-71
2024/01/25 00:51:13;;;;;;;;;;;;;;;4.94;100.00;102247.59;4895903;29;19927;-71
2024/01/25 00:53:38;;;;;;;;;;;;;;;4.83;100.00;102244.00;4895545;29;19923;-71
2024/01/25 00:56:03;;;;;;;;;;;;;;;4.79;100.00;102247.00;4894805;29;20295;-71
2024/01/25 00:58:29;;;;;;;;;;;;;;;4.73;100.00;102250.19;4896095;29;19931;-71
2024/01/25 01:00:54;;;;;;;;;;;;;;;4.66;100.00;102256.00;4895579;29;20562;-71
2024/01/25 01:03:20;;;;;;;;;;;;;;;4.58;100.00;102250.47;4887871;29;19939;-71
2024/01/25 01:05:45;;;;;;;;;;;;;;;4.52;100.00;102261.63;4895483;29;19923;-71
2024/01/25 01:08:13;;;;;;;;;;;;;;;4.45;100.00;102268.38;4896063;29;19923;-73
2024/01/25 01:10:38;;;;;;;;;;;;;;;4.37;100.00;102266.31;4895498;29;19986;-71
2024/01/25 01:13:07;;;;;;;;;;;;;;;4.30;100.00;102260.63;4895276;29;19923;-71
2024/01/25 01:15:32;;;;;;;;;;;;;;;4.27;100.00;102266.19;4895659;29;19979;-71
2024/01/25 01:17:57;;;;;;;;;;;;;;;4.19;100.00;102276.63;4895868;29;19927;-71
2024/01/25 01:20:23;;;;;;;;;;;;;;;4.16;100.00;102280.38;4895591;29;19979;-71
2024/01/25 01:22:48;;;;;;;;;;;;;;;4.11;100.00;102282.56;4895113;29;19931;-71
2024/01/25 01:25:13;;;;;;;;;;;;;;;4.06;100.00;102290.88;4895200;29;19924;-71
2024/01/25 01:27:38;;;;;;;;;;;;;;;4.03;100.00;102291.16;4895182;29;19924;-71
2024/01/25 01:30:04;;;;;;;;;;;;;;;4.02;100.00;102286.78;4895791;29;19979;-71
2024/01/25 01:32:29;;;;;;;;;;;;;;;4.06;100.00;102292.72;4894901;29;20005;-71
2024/01/25 01:34:54;;;;;;;;;;;;;;;4.04;100.00;102299.97;4898132;29;19932;-72
2024/01/25 01:37:19;;;;;;;;;;;;;;;4.00;100.00;102294.03;4898640;29;19934;-72
2024/01/25 01:39:45;;;;;;;;;;;;;;;3.92;100.00;102291.09;4898992;29;20010;-72
2024/01/25 01:42:10;;;;;;;;;;;;;;;3.90;100.00;102291.22;4898222;29;19978;-72
2024/01/25 01:44:35;;;;;;;;;;;;;;;3.88;100.00;102285.16;4898694;29;19958;-72
2024/01/25 01:47:00;;;;;;;;;;;;;;;3.79;100.00;102292.06;4898878;29;20021;-72
2024/01/25 01:49:26;;;;;;;;;;;;;;;3.73;100.00;102287.19;4881700;29;19985;-72
2024/01/25 01:51:51;;;;;;;;;;;;;;;3.70;100.00;102284.78;4897581;29;19924;-72
2024/01/25 01:54:16;;;;;;;;;;;;;;;3.68;100.00;102283.16;4897875;29;20364;-72
2024/01/25 01:56:41;;;;;;;;;;;;;;;3.59;100.00;102288.25;4880713;29;19927;-72
2024/01/25 01:59:10;;;;;;;;;;;;;;;3.59;100.00;102290.91;4881643;29;19931;-72
2024/01/25 02:01:35;;;;;;;;;;;;;;;3.59;100.00;102284.72;4893232;29;19930;-72
2024/01/25 02:04:01;;;;;;;;;;;;;;;3.54;100.00;102289.53;4897030;29;19927;-72
2024/01/25 02:06:26;;;;;;;;;;;;;;;3.53;100.00;102291.34;4898814;29;19923;-72
2024/01/25 02:08:52;;;;;;;;;;;;;;;3.45;100.00;102294.59;4898405;29;20045;-72
2024/01/25 02:11:18;;;;;;;;;;;;;;;3.46;100.00;102288.31;4897218;29;19927;-72
2024/01/25 02:13:43;;;;;;;;;;;;;;;3.43;100.00;102301.84;4898143;29;19952;-72
2024/01/25 02:16:09;;;;;;;;;;;;;;;3.37;100.00;102304.94;4897364;29;20618;-72
2024/01/25 02:18:34;;;;;;;;;;;;;;;3.36;100.00;102297.09;4897582;29;19950;-72
2024/01/25 02:20:59;;;;;;;;;;;;;;;3.35;100.00;102304.25;4897080;29;19923;-72
2024/01/25 02:23:24;;;;;;;;;;;;;;;3.39;100.00;102295.03;4897215;29;19970;-72
2024/01/25 02:25:50;;;;;;;;;;;;;;;3.38;100.00;102293.34;4897258;29;19923;-72
2024/01/25 02:28:15;;;;;;;;;;;;;;;3.40;100.00;102290.56;4898205;29;19924;-72
2024/01/25 02:30:40;;;;;;;;;;;;;;;3.35;100.00;102282.94;4898066;29;20076;-72
2024/01/25 02:33:05;;;;;;;;;;;;;;;3.33;100.00;102282.19;4897067;29;19966;-72
2024/01/25 02:35:31;;;;;;;;;;;;;;;3.33;100.00;102283.03;4897327;29;19923;-72
2024/01/25 02:37:56;;;;;;;;;;;;;;;3.33;100.00;102303.50;4898513;29;19927;-72
2024/01/25 02:40:21;;;;;;;;;;;;;;;3.36;100.00;102305.06;4894404;29;19974;-72
2024/01/25 02:42:47;;;;;;;;;;;;;;;3.34;100.00;102286.56;4897589;29;20398;-72
2024/01/25 02:45:15;;;;;;;;;;;;;;;3.31;100.00;102286.78;4898079;29;20719;-71
2024/01/25 02:47:40;;;;;;;;;;;;;;;3.31;100.00;102294.78;4896262;29;19930;-71
2024/01/25 02:50:05;;;;;;;;;;;;;;;3.34;100.00;102291.88;4897148;29;19964;-71
2024/01/25 02:52:31;;;;;;;;;;;;;;;3.34;100.00;102298.03;4897812;29;20308;-71
2024/01/25 02:54:57;;;;;;;;;;;;;;;3.29;100.00;102315.31;4896698;29;19974;-70
2024/01/25 02:57:22;;;;;;;;;;;;;;;3.27;100.00;102307.44;4897124;29;19959;-71
2024/01/25 02:59:47;;;;;;;;;;;;;;;3.25;100.00;102319.16;4895096;29;19966;-71
2024/01/25 03:02:13;;;;;;;;;;;;;;;3.21;100.00;102309.69;4895559;29;20388;-71
2024/01/25 03:04:38;;;;;;;;;;;;;;;3.22;100.00;102325.56;4897072;29;20384;-71
2024/01/25 03:07:03;;;;;;;;;;;;;;;3.18;100.00;102319.59;4893156;29;20489;-71
2024/01/25 03:09:28;;;;;;;;;;;;;;;3.16;100.00;102334.00;4895676;29;20420;-71
2024/01/25 03:11:54;;;;;;;;;;;;;;;3.15;100.00;102325.16;4896937;29;20465;-71
2024/01/25 03:14:19;;;;;;;;;;;;;;;3.12;100.00;102317.41;4897024;29;20376;-71
2024/01/25 03:16:44;;;;;;;;;;;;;;;3.06;100.00;102315.19;4896463;29;19934;-72
2024/01/25 03:19:10;;;;;;;;;;;;;;;3.03;100.00;102315.41;4897259;29;19927;-73
2024/01/25 03:21:35;;;;;;;;;;;;;;;2.99;100.00;102319.25;4896845;29;20014;-73
2024/01/25 03:24:00;;;;;;;;;;;;;;;2.99;100.00;102330.75;4896089;29;20502;-72
2024/01/25 03:26:28;;;;;;;;;;;;;;;2.99;100.00;102324.59;4896625;29;20369;-73
2024/01/25 03:28:54;;;;;;;;;;;;;;;2.95;100.00;102315.13;4897173;29;19927;-73
2024/01/25 03:31:19;;;;;;;;;;;;;;;2.95;100.00;102315.94;4896933;29;19932;-73
2024/01/25 03:33:44;;;;;;;;;;;;;;;2.92;100.00;102318.81;4896340;29;19966;-73
2024/01/25 03:36:09;;;;;;;;;;;;;;;2.87;100.00;102321.81;4896562;29;19975;-72
2024/01/25 03:38:34;;;;;;;;;;;;;;;2.79;100.00;102313.56;4896720;29;19923;-73
2024/01/25 03:41:00;;;;;;;;;;;;;;;2.86;100.00;102329.94;4895412;29;19948;-71
2024/01/25 03:43:25;;;;;;;;;;;;;;;2.76;100.00;102331.53;4896508;29;20435;-72
2024/01/25 03:45:50;;;;;;;;;;;;;;;2.76;100.00;102334.19;4896799;29;19930;-72
2024/01/25 03:48:16;;;;;;;;;;;;;;;2.79;100.00;102332.19;4896229;29;19920;-72
2024/01/25 03:50:44;;;;;;;;;;;;;;;2.83;100.00;102338.97;4895676;29;19971;-72
2024/01/25 03:53:09;;;;;;;;;;;;;;;2.80;100.00;102341.00;4896168;29;19979;-72
2024/01/25 03:55:34;;;;;;;;;;;;;;;2.81;100.00;102340.91;4896195;29;19927;-72
2024/01/25 03:58:00;;;;;;;;;;;;;;;2.86;100.00;102346.72;4895348;29;19927;-73
2024/01/25 04:00:25;;;;;;;;;;;;;;;2.76;100.00;102350.13;4896915;29;20333;-72
2024/01/25 04:02:50;;;;;;;;;;;;;;;2.78;100.00;102349.09;4895755;29;20273;-72
2024/01/25 04:05:15;;;;;;;;;;;;;;;2.78;100.00;102341.13;4896109;29;19993;-72
2024/01/25 04:07:44;;;;;;;;;;;;;;;2.75;100.00;102345.78;4896756;29;19928;-73
2024/01/25 04:10:09;;;;;;;;;;;;;;;2.58;100.00;102343.38;4896169;29;19927;-72
2024/01/25 04:12:34;;;;;;;;;;;;;;;2.53;100.00;102352.63;4895858;29;19979;-72
2024/01/25 04:14:59;;;;;;;;;;;;;;;2.46;100.00;102352.19;4896805;29;19927;-72
2024/01/25 04:17:25;;;;;;;;;;;;;;;2.39;100.00;102348.25;4895280;29;19923;-72
2024/01/25 04:19:50;;;;;;;;;;;;;;;2.23;100.00;102344.00;4896547;29;19923;-72
2024/01/25 04:22:15;;;;;;;;;;;;;;;2.23;100.00;102346.66;4896824;29;19931;-73
2024/01/25 04:24:41;;;;;;;;;;;;;;;2.13;100.00;102353.53;4895079;29;19924;-73
2024/01/25 04:27:06;;;;;;;;;;;;;;;2.14;100.00;102349.94;4896194;29;20006;-73
2024/01/25 04:29:31;;;;;;;;;;;;;;;2.08;100.00;102355.69;4896609;29;19970;-73
2024/01/25 04:31:57;;;;;;;;;;;;;;;2.11;100.00;102360.78;4895425;29;19923;-72
2024/01/25 04:34:22;;;;;;;;;;;;;;;2.12;100.00;102358.00;4895796;29;19923;-72
2024/01/25 04:36:47;;;;;;;;;;;;;;;2.11;100.00;102363.44;4896797;29;20010;-73
2024/01/25 04:39:12;;;;;;;;;;;;;;;2.10;100.00;102359.09;4895490;29;20129;-72
2024/01/25 04:41:37;;;;;;;;;;;;;;;2.22;100.00;102352.94;4895814;29;20304;-72
2024/01/25 04:44:03;;;;;;;;;;;;;;;2.16;100.00;102361.31;4896952;29;19990;-72
2024/01/25 04:46:28;;;;;;;;;;;;;;;2.10;100.00;102357.25;4895042;29;19923;-72
2024/01/25 04:48:54;;;;;;;;;;;;;;;2.03;100.00;102369.25;4896006;29;19923;-72
2024/01/25 04:51:20;;;;;;;;;;;;;;;1.91;100.00;102370.06;4896822;29;19942;-73
2024/01/25 04:53:45;;;;;;;;;;;;;;;1.84;100.00;102366.97;4894845;29;20410;-72
2024/01/25 04:56:10;;;;;;;;;;;;;;;1.85;100.00;102362.53;4895598;29;19930;-72
2024/01/25 04:58:35;;;;;;;;;;;;;;;1.86;100.00;102366.88;4896651;29;19923;-72
2024/01/25 05:01:01;;;;;;;;;;;;;;;1.75;100.00;102357.81;4894664;29;19981;-72
2024/01/25 05:03:26;;;;;;;;;;;;;;;1.71;100.00;102358.13;4895742;29;19967;-72
2024/01/25 05:05:51;;;;;;;;;;;;;;;1.65;100.00;102354.09;4896688;29;19966;-73
2024/01/25 05:08:16;;;;;;;;;;;;;;;1.69;100.00;102360.03;4895987;29;20300;-72
2024/01/25 05:10:41;;;;;;;;;;;;;;;1.71;100.00;102361.63;4898684;29;19930;-72
2024/01/25 05:13:07;;;;;;;;;;;;;;;1.72;100.00;102365.16;4899965;29;19929;-72
2024/01/25 05:15:35;;;;;;;;;;;;;;;1.72;100.00;102365.97;4898906;29;20372;-73
2024/01/25 05:18:00;;;;;;;;;;;;;;;1.79;100.00;102361.13;4892271;29;19979;-72
2024/01/25 05:20:32;;;;;;;;;;;;;;;1.84;100.00;102355.53;4903760;29;19923;-73
2024/01/25 05:22:57;;;;;;;;;;;;;;;1.80;100.00;102362.81;4906985;29;20033;-72
2024/01/25 05:25:22;;;;;;;;;;;;;;;1.74;100.00;102364.09;4899477;29;20015;-72
2024/01/25 05:27:47;;;;;;;;;;;;;;;1.69;100.00;102365.34;4897682;29;19955;-72
2024/01/25 05:30:13;;;;;;;;;;;;;;;1.57;100.00;102364.34;4899859;29;20005;-73
2024/01/25 05:32:38;;;;;;;;;;;;;;;1.56;100.00;102362.63;4899067;29;19969;-73
2024/01/25 05:35:06;;;;;;;;;;;;;;;1.47;100.00;102358.78;4898985;29;20387;-73
2024/01/25 05:37:32;;;;;;;;;;;;;;;1.21;100.00;102358.66;4899664;29;20444;-73
2024/01/25 05:39:57;;;;;;;;;;;;;;;1.08;100.00;102370.97;4899034;29;19928;-72
2024/01/25 05:42:23;;;;;;;;;;;;;;;1.03;100.00;102368.63;4898722;29;20391;-72
2024/01/25 05:44:48;;;;;;;;;;;;;;;1.15;100.00;102367.00;4898826;29;19924;-73
2024/01/25 05:47:13;;;;;;;;;;;;;;;1.15;100.00;102369.66;4898404;29;19956;-72
2024/01/25 05:49:39;;;;;;;;;;;;;;;1.16;100.00;102369.56;4899005;29;19924;-72
2024/01/25 05:52:05;;;;;;;;;;;;;;;1.16;100.00;102387.28;4899009;29;20066;-72
2024/01/25 05:54:30;;;;;;;;;;;;;;;1.26;100.00;102384.91;4898552;29;20022;-72
2024/01/25 05:56:55;;;;;;;;;;;;;;;1.35;100.00;102385.16;4898486;29;20403;-72
2024/01/25 05:59:23;;;;;;;;;;;;;;;1.40;100.00;102389.34;4899411;29;20360;-72
2024/01/25 06:01:49;;;;;;;;;;;;;;;1.35;100.00;102390.47;4898196;29;19924;-73
2024/01/25 06:04:14;;;;;;;;;;;;;;;1.23;100.00;102396.56;4897774;29;19971;-72
2024/01/25 06:06:39;;;;;;;;;;;;;;;1.17;100.00;102403.09;4899149;29;19982;-72
2024/01/25 06:09:05;;;;;;;;;;;;;;;1.14;100.00;102405.97;4881011;29;19939;-74
2024/01/25 06:11:30;;;;;;;;;;;;;;;1.18;100.00;102403.97;4898080;29;20349;-72
2024/01/25 06:13:55;;;;;;;;;;;;;;;1.15;100.00;102404.16;4891259;29;20384;-72
2024/01/25 06:16:23;;;;;;;;;;;;;;;1.11;100.00;102415.88;4898205;29;19933;-72
2024/01/25 06:18:49;;;;;;;;;;;;;;;1.13;100.00;102406.03;4897709;29;19979;-72
2024/01/25 06:21:17;;;;;;;;;;;;;;;1.14;100.00;102407.75;4897598;29;19999;-72
2024/01/25 06:23:42;;;;;;;;;;;;;;;1.13;100.00;102401.59;4898482;29;20277;-72
2024/01/25 06:26:08;;;;;;;;;;;;;;;1.08;100.00;102397.50;4903782;23;20444;-72
2024/01/25 06:28:34;;;;;;;;;;;;;;;1.02;100.00;102401.41;4898997;29;19924;-72
2024/01/25 06:31:00;;;;;;;;;;;;;;;1.00;100.00;102400.63;4897019;29;20262;-72
2024/01/25 06:33:26;;;;;;;;;;;;;;;1.01;100.00;102413.81;4898225;29;19924;-72
2024/01/25 06:35:51;;;;;;;;;;;;;;;1.06;100.00;102414.38;4898538;29;19978;-72
2024/01/25 06:38:16;;;;;;;;;;;;;;;1.10;100.00;102420.34;4896996;29;19924;-72
2024/01/25 06:40:41;;;;;;;;;;;;;;;1.13;100.00;102421.94;4897733;29;19934;-72
2024/01/25 06:43:07;;;;;;;;;;;;;;;1.11;100.00;102419.41;4898192;29;19919;-72
2024/01/25 06:45:32;;;;;;;;;;;;;;;1.14;100.00;102423.66;4897016;29;19927;-73
2024/01/25 06:47:57;;;;;;;;;;;;;;;1.06;100.00;102408.22;4898383;29;19916;-72
2024/01/25 06:50:23;;;;;;;;;;;;;;;0.99;100.00;102415.72;4898855;29;20006;-73
2024/01/25 06:52:48;;;;;;;;;;;;;;;0.98;100.00;102408.69;4896788;29;19968;-72
2024/01/25 06:55:13;;;;;;;;;;;;;;;1.03;100.00;102411.94;4896559;29;19950;-72
2024/01/25 06:57:38;;;;;;;;;;;;;;;1.07;100.00;102423.19;4898472;29;19924;-72
2024/01/25 07:00:04;;;;;;;;;;;;;;;1.07;100.00;102420.53;4897116;29;19924;-72
2024/01/25 07:02:30;;;;;;;;;;;;;;;1.10;100.00;102423.00;4897424;29;19950;-73
2024/01/25 07:04:55;;;;;;;;;;;;;;;1.09;100.00;102421.31;4897978;29;19926;-72
2024/01/25 07:07:20;;;;;;;;;;;;;;;1.08;100.00;102419.59;4896537;29;19927;-72
2024/01/25 07:09:46;;;;;;;;;;;;;;;1.02;100.00;102426.13;4897319;29;20018;-72
2024/01/25 07:12:11;;;;;;;;;;;;;;;0.96;100.00;102425.66;4898195;29;20007;-72
2024/01/25 07:14:36;;;;;;;;;;;;;;;0.87;100.00;102416.47;4895945;29;19969;-73
2024/01/25 07:17:02;;;;;;;;;;;;;;;0.81;100.00;102411.53;4893805;29;19962;-73
2024/01/25 07:19:27;;;;;;;;;;;;;;;0.79;100.00;102414.31;4896167;29;20010;-73
2024/01/25 07:21:52;;;;;;;;;;;;;;;0.83;100.00;102425.56;4895346;29;19995;-73
2024/01/25 07:24:17;;;;;;;;;;;;;;;0.93;100.00;102426.69;4893905;29;20010;-73
2024/01/25 07:26:42;;;;;;;;;;;;;;;0.97;100.00;102427.38;4895523;29;19923;-73
2024/01/25 07:29:08;;;;;;;;;;;;;;;1.03;100.00;102425.19;4891024;29;19927;-73
2024/01/25 07:31:33;;;;;;;;;;;;;;;1.12;100.00;102429.06;4894444;29;19931;-73
2024/01/25 07:34:00;;;;;;;;;;;;;;;1.15;100.00;102420.91;4895420;29;20489;-74
2024/01/25 07:36:25;;;;;;;;;;;;;;;1.22;100.00;102424.03;4895170;29;20022;-75
2024/01/25 07:38:53;;;;;;;;;;;;;;;1.29;100.00;102421.84;4894888;29;20026;-71
2024/01/25 07:41:21;;;;;;;;;;;;;;;1.30;100.00;102424.41;4895291;29;20490;-73
2024/01/25 07:43:46;;;;;;;;;;;;;;;1.27;100.00;102431.69;4889873;29;19928;-73
2024/01/25 07:46:14;;;;;;;;;;;;;;;1.20;100.00;102436.56;4894293;29;19994;-74
2024/01/25 07:48:40;;;;;;;;;;;;;;;1.28;100.00;102442.22;4894819;29;19931;-73
2024/01/25 07:51:10;;;;;;;;;;;;;;;1.26;100.00;102438.78;4895499;29;19931;-74
2024/01/25 07:53:35;;;;;;;;;;;;;;;1.20;100.00;102437.38;4877884;29;20018;-74
2024/01/25 07:56:00;;;;;;;;;;;;;;;1.24;100.00;102443.34;4894595;29;20018;-73
2024/01/25 07:58:26;;;;;;;;;;;;;;;1.28;100.00;102450.16;4901560;23;20078;-73
2024/01/25 08:00:52;;;;;;;;;;;;;;;1.43;100.00;102445.72;4894930;29;20010;-73
2024/01/25 08:03:17;;;;;;;;;;;;;;;1.52;100.00;102452.22;4893567;29;19955;-74
2024/01/25 08:05:43;;;;;;;;;;;;;;;1.70;100.00;102457.31;4895657;29;19992;-74
2024/01/25 08:08:08;;;;;;;;;;;;;;;1.75;100.00;102456.06;4894912;29;19932;-74
2024/01/25 08:10:33;;;;;;;;;;;;;;;1.84;100.00;102453.78;4893986;29;19923;-74
2024/01/25 08:12:59;;;;;;;;;;;;;;;1.91;100.00;102447.97;4895428;29;19923;-73
2024/01/25 08:15:24;;;;;;;;;;;;;;;1.99;100.00;102463.38;4894968;29;19927;-77
2024/01/25 08:17:49;;;;;;;;;;;;;;;1.99;100.00;102460.72;4893357;29;19972;-74
2024/01/25 08:20:15;;;;;;;;;;;;;;;2.02;100.00;102459.66;4895066;29;19949;-73
2024/01/25 08:22:40;;;;;;;;;;;;;;;2.08;100.00;102467.25;4890832;29;19923;-73
2024/01/25 08:25:06;;;;;;;;;;;;;;;2.14;100.00;102472.13;4893438;29;19928;-73
2024/01/25 08:27:31;;;;;;;;;;;;;;;2.21;100.00;102473.44;4889789;29;19963;-71
2024/01/25 08:29:56;;;;;;;;;;;;;;;2.23;100.00;102474.19;4894129;29;20388;-74
2024/01/25 08:32:21;;;;;;;;;;;;;;;2.32;100.00;102469.22;4893492;29;19927;-73
2024/01/25 08:34:47;;;;;;;;;;;;;;;2.22;100.00;102475.16;4895685;29;19934;-73
2024/01/25 08:37:12;;;;;;;;;;;;;;;2.24;100.00;102470.59;4890310;29;20014;-72
2024/01/25 08:39:37;;;;;;;;;;;;;;;2.27;100.00;102482.81;4890812;29;20011;-73
2024/01/25 08:42:05;;;;;;;;;;;;;;;2.44;100.00;102479.03;4895197;29;19977;-73
2024/01/25 08:44:31;;;;;;;;;;;;;;;2.51;100.00;102485.63;4899465;29;19923;-75
2024/01/25 08:46:56;;;;;;;;;;;;;;;2.62;100.00;102489.38;4899846;29;20345;-70
2024/01/25 08:49:21;;;;;;;;;;;;;;;2.70;100.00;102487.91;4901855;29;19930;-76
2024/01/25 08:51:46;;;;;;;;;;;;;;;2.73;100.00;102484.19;4898861;29;19923;-74
2024/01/25 08:54:12;;;;;;;;;;;;;;;2.80;100.00;102477.50;4895175;29;19962;-74
2024/01/25 08:56:37;;;;;;;;;;;;;;;2.83;100.00;102471.09;4901679;29;19924;-74
2024/01/25 08:59:02;;;;;;;;;;;;;;;2.92;100.00;102475.78;4900362;29;19983;-75
2024/01/25 09:01:27;;;;;;;;;;;;;;;2.84;100.00;102478.97;4896554;29;20288;-72
2024/01/25 09:03:53;;;;;;;;;;;;;;;2.93;100.00;102477.47;4900339;29;20349;-74
2024/01/25 09:06:18;;;;;;;;;;;;;;;2.91;100.00;102471.44;4899809;29;19933;-74
2024/01/25 09:08:43;;;;;;;;;;;;;;;3.12;100.00;102476.19;4900737;29;19930;-73
2024/01/25 09:11:08;;;;;;;;;;;;;;;3.24;100.00;102479.81;4900682;29;20348;-73
2024/01/25 09:13:34;;;;;;;;;;;;;;;3.56;100.00;102472.19;4900190;29;19981;-73
2024/01/25 09:15:59;;;;;;;;;;;;;;;3.63;100.00;102475.28;4900521;29;19924;-72
2024/01/25 09:18:27;;;;;;;;;;;;;;;3.79;100.00;102478.50;4907230;23;19941;-72
2024/01/25 09:20:52;;;;;;;;;;;;;;;3.93;100.00;102484.63;4899883;29;19973;-72
2024/01/25 09:23:18;;;;;;;;;;;;;;;3.96;100.00;102495.06;4900660;29;19966;-72
2024/01/25 09:25:44;;;;;;;;;;;;;;;3.72;100.00;102487.91;4901051;29;19931;-73
2024/01/25 09:28:11;;;;;;;;;;;;;;;3.63;100.00;102488.59;4899709;29;20710;-73
2024/01/25 09:30:37;;;;;;;;;;;;;;;3.54;100.00;102494.56;4900681;29;19927;-73
2024/01/25 09:33:04;;;;;;;;;;;;;;;3.61;100.00;102495.81;4900214;29;19923;-72
2024/01/25 09:35:29;;;;;;;;;;;;;;;3.52;100.00;102499.16;4900143;29;19931;-73
2024/01/25 09:37:55;;;;;;;;;;;;;;;3.70;100.00;102489.84;4899919;29;19937;-72
2024/01/25 09:40:23;;;;;;;;;;;;;;;4.02;100.00;102489.31;4900808;29;20022;-72
2024/01/25 09:42:48;;;;;;;;;;;;;;;4.24;100.00;102493.03;4883519;29;20337;-73
2024/01/25 09:45:16;;;;;;;;;;;;;;;4.42;100.00;102489.94;4899967;29;19932;-73
2024/01/25 09:47:41;;;;;;;;;;;;;;;4.20;100.00;102491.56;4883209;29;19995;-73
2024/01/25 09:50:07;;;;;;;;;;;;;;;4.29;100.00;102490.03;4899914;29;20371;-73
2024/01/25 09:52:32;;;;;;;;;;;;;;;4.55;100.00;102493.41;4900228;29;19931;-73
2024/01/25 09:54:57;;;;;;;;;;;;;;;4.55;100.00;102483.56;4882019;29;19992;-73
2024/01/25 09:57:24;;;;;;;;;;;;;;;4.72;100.00;102480.59;4880685;29;19935;-73
2024/01/25 09:59:50;;;;;;;;;;;;;;;4.80;100.00;102472.84;4897376;29;20325;-73
2024/01/25 10:02:15;;;;;;;;;;;;;;;4.81;100.00;102474.53;4896480;29;19974;-73
2024/01/25 10:04:41;;;;;;;;;;;;;;;4.90;100.00;102480.97;4898090;29;19962;-72
2024/01/25 10:07:06;;;;;;;;;;;;;;;4.93;100.00;102494.09;4897392;29;19967;-74
2024/01/25 10:09:37;;;;;;;;;;;;;;;4.99;100.00;102504.28;4896191;29;19923;-72
2024/01/25 10:12:03;;;;;;;;;;;;;;;5.10;100.00;102506.13;4897444;29;19971;-72
2024/01/25 10:14:28;;;;;;;;;;;;;;;5.16;100.00;102501.16;4897330;29;19928;-72
2024/01/25 10:16:53;;;;;;;;;;;;;;;5.38;100.00;102509.28;4901861;23;19928;-72
2024/01/25 10:19:18;;;;;;;;;;;;;;;5.47;100.00;102511.25;4897702;29;20032;-73
2024/01/25 10:21:43;;;;;;;;;;;;;;;5.55;100.00;102516.81;4879786;29;19923;-73
2024/01/25 10:24:09;;;;;;;;;;;;;;;5.66;100.00;102507.06;4879284;29;19935;-73
2024/01/25 10:26:34;;;;;;;;;;;;;;;5.65;100.00;102511.59;4896838;29;19923;-73
2024/01/25 10:29:00;;;;;;;;;;;;;;;5.65;100.00;102505.41;4896379;29;20001;-73
2024/01/25 10:31:25;;;;;;;;;;;;;;;5.17;100.00;102496.66;4895484;29;20704;-73
2024/01/25 10:33:56;;;;;;;;;;;;;;;5.53;100.00;102489.38;4897948;29;19919;-73
2024/01/25 10:36:22;;;;;;;;;;;;;;;5.32;100.00;102490.09;4891431;29;19923;-73
2024/01/25 10:38:50;;;;;;;;;;;;;;;5.20;100.00;102491.09;4895977;29;19920;-73
2024/01/25 10:41:16;;;;;;;;;;;;;;;5.51;100.00;102493.16;4897109;29;19928;-72
2024/01/25 10:43:41;;;;;;;;;;;;;;;5.57;100.00;102482.81;4896688;29;19938;-73
2024/01/25 10:46:06;;;;;;;;;;;;;;;5.65;100.00;102479.53;4895427;29;19923;-74
2024/01/25 10:48:32;;;;;;;;;;;;;;;5.71;100.00;102480.84;4879365;29;19934;-74
2024/01/25 10:50:59;;;;;;;;;;;;;;;5.78;100.00;102474.03;4895511;29;19927;-74
2024/01/25 10:53:24;;;;;;;;;;;;;;;5.83;100.00;102470.97;4894937;29;19927;-73
2024/01/25 10:55:50;;;;;;;;;;;;;;;5.81;100.00;102470.25;4896074;29;19923;-74
2024/01/25 10:58:18;;;;;;;;;;;;;;;5.69;100.00;102461.41;4894652;29;19995;-74
2024/01/25 11:00:55;;;;;;;;;;;;;;;5.78;100.00;102468.69;4896032;29;20050;-74
2024/01/25 11:03:22;;;;;;;;;;;;;;;5.87;100.00;102445.72;4896840;29;20349;-74
2024/01/25 11:05:48;;;;;;;;;;;;;;;6.00;100.00;102456.28;4894984;29;19966;-74
2024/01/25 11:08:17;;;;;;;;;;;;;;;6.12;100.00;102460.59;4878432;29;19963;-74
2024/01/25 11:10:42;;;;;;;;;;;;;;;6.16;100.00;102456.69;4896741;29;19924;-74
2024/01/25 11:13:13;;;;;;;;;;;;;;;6.04;100.00;102455.03;4876513;29;20415;-72
2024/01/25 11:15:38;;;;;;;;;;;;;;;6.15;100.00;102446.97;4877272;29;19923;-72
2024/01/25 11:18:06;;;;;;;;;;;;;;;6.31;100.00;102449.19;4900584;29;20296;-73
2024/01/25 11:20:31;;;;;;;;;;;;;;;6.38;100.00;102446.84;4897673;29;19927;-72
2024/01/25 11:23:04;;;;;;;;;;;;;;;6.28;100.00;102441.41;4894897;29;20476;-73
2024/01/25 11:25:30;;;;;;;;;;;;;;;6.38;100.00;102438.81;4895892;29;19927;-72
2024/01/25 11:27:55;;;;;;;;;;;;;;;6.21;100.00;102433.06;4894614;29;19945;-73
2024/01/25 11:30:20;;;;;;;;;;;;;;;5.98;100.00;102434.13;4895293;29;19923;-73
2024/01/25 11:32:47;;;;;;;;;;;;;;;5.61;100.00;102438.00;4895476;29;19985;-73
2024/01/25 11:35:16;;;;;;;;;;;;;;;5.56;100.00;102437.53;4894912;29;20022;-73
2024/01/25 11:37:41;;;;;;;;;;;;;;;5.94;100.00;102427.34;4895727;29;19924;-73
2024/01/25 11:40:07;;;;;;;;;;;;;;;6.11;100.00;102421.47;4894873;29;19931;-73
2024/01/25 11:42:32;;;;;;;;;;;;;;;6.44;100.00;102432.97;4889601;29;19936;-73
2024/01/25 11:44:58;;;;;;;;;;;;;;;6.53;100.00;102429.50;4886782;29;19923;-73
2024/01/25 11:47:23;;;;;;;;;;;;;;;6.59;100.00;102424.59;4885870;29;20369;-73
2024/01/25 11:49:48;;;;;;;;;;;;;;;6.65;100.00;102403.50;4885674;29;19954;-73
2024/01/25 11:52:14;;;;;;;;;;;;;;;6.83;100.00;102400.22;4885499;29;19923;-73
2024/01/25 11:54:42;;;;;;;;;;;;;;;6.96;100.00;102402.66;4886166;29;20011;-73
2024/01/25 11:57:08;;;;;;;;;;;;;;;7.10;100.00;102396.94;4886096;29;20014;-73
2024/01/25 11:59:33;;;;;;;;;;;;;;;7.35;100.00;102399.25;4887620;29;20444;-74
2024/01/25 12:01:58;;;;;;;;;;;;;;;6.86;100.00;102391.91;4876899;29;20380;-73
2024/01/25 12:04:24;;;;;;;;;;;;;;;7.70;99.86;102404.13;4885243;29;19954;-73
2024/01/25 12:06:49;;;;;;;;;;;;;;;8.15;97.22;102386.63;4888377;29;19923;-73
2024/01/25 12:09:14;;;;;;;;;;;;;;;8.32;93.80;102379.69;4882307;29;19924;-73
2024/01/25 12:11:40;;;;;;;;;;;;;;;8.26;93.81;102382.97;4869870;29;19927;-73
2024/01/25 12:14:05;;;;;;;;;;;;;;;8.24;93.11;102390.28;4886966;29;19938;-73
2024/01/25 12:16:30;;;;;;;;;;;;;;;8.09;93.46;102386.38;4870099;29;19924;-73
2024/01/25 12:18:56;;;;;;;;;;;;;;;8.08;94.35;102384.66;4882107;29;19971;-73
2024/01/25 12:21:21;;;;;;;;;;;;;;;7.95;95.27;102383.09;4885570;29;20026;-73
2024/01/25 12:23:46;;;;;;;;;;;;;;;8.24;93.82;102368.84;4887831;29;20405;-73
2024/01/25 12:26:11;;;;;;;;;;;;;;;8.20;91.45;102372.78;4886893;29;20336;-73
2024/01/25 12:28:36;;;;;;;;;;;;;;;7.33;98.11;102367.25;4887410;29;19930;-73